Time;durP1;ratioP1;P1;durP2;ratioP2;P2;SDS_P1;SDS_P2;PMS_P1;PMS_P2;Temp;Humidity;BMP_temperature;BMP_pressure;BME280_temperature;BME280_humidity;BME280_pressure;Samples;Min_cycle;Max_cycle;Signal;HPM_P1;HPM_P2
2021/07/23 00:01:58;;;;;;;2.40;2.05;;;22.90;68.80;;;;;;5052978;28;20390;-57
2021/07/23 00:04:24;;;;;;;3.20;2.30;;;22.90;68.70;;;;;;5045030;28;20077;-58
2021/07/23 00:06:50;;;;;;;2.13;1.92;;;22.90;68.80;;;;;;5052451;28;20072;-54
2021/07/23 00:09:15;;;;;;;2.90;2.00;;;22.90;68.80;;;;;;5053183;28;20053;-54
2021/07/23 00:11:41;;;;;;;2.28;2.03;;;22.90;68.80;;;;;;5052917;28;20056;-52
2021/07/23 00:14:07;;;;;;;2.20;2.00;;;22.90;68.80;;;;;;5052605;28;20087;-57
2021/07/23 00:16:32;;;;;;;2.10;1.90;;;22.90;68.90;;;;;;5053098;28;20057;-54
2021/07/23 00:18:58;;;;;;;2.65;2.28;;;22.90;68.90;;;;;;5052740;28;20049;-48
2021/07/23 00:21:24;;;;;;;1.95;1.73;;;22.90;68.90;;;;;;5052884;28;20059;-52
2021/07/23 00:23:49;;;;;;;2.45;2.20;;;22.90;68.80;;;;;;5051509;28;20037;-46
2021/07/23 00:26:18;;;;;;;2.03;1.83;;;22.90;68.90;;;;;;5052852;28;20136;-56
2021/07/23 00:28:45;;;;;;;3.00;2.35;;;22.90;68.90;;;;;;5052101;28;20053;-54
2021/07/23 00:31:12;;;;;;;1.95;1.75;;;22.90;68.90;;;;;;5052690;28;20072;-56
2021/07/23 00:33:37;;;;;;;2.05;1.85;;;22.90;68.90;;;;;;5052396;28;20041;-55
2021/07/23 00:36:03;;;;;;;2.42;1.95;;;22.90;68.90;;;;;;5052441;28;20060;-49
2021/07/23 00:38:29;;;;;;;2.53;1.90;;;22.90;68.90;;;;;;5051827;28;20124;-56
2021/07/23 00:40:54;;;;;;;2.33;2.05;;;22.90;69.00;;;;;;5052580;28;20053;-51
2021/07/23 00:43:20;;;;;;;2.22;2.03;;;22.90;69.00;;;;;;5052078;28;20560;-52
2021/07/23 00:45:46;;;;;;;2.00;1.80;;;22.90;69.00;;;;;;5052473;28;20057;-56
2021/07/23 00:48:14;;;;;;;2.05;1.85;;;22.90;69.00;;;;;;5052464;28;20124;-53
2021/07/23 00:50:40;;;;;;;2.85;2.20;;;22.90;69.00;;;;;;5052287;28;20499;-54
2021/07/23 00:53:06;;;;;;;2.42;1.90;;;22.90;69.00;;;;;;5051690;28;20064;-46
2021/07/23 00:55:32;;;;;;;2.47;1.73;;;22.90;69.00;;;;;;5051503;28;20515;-52
2021/07/23 00:58:00;;;;;;;2.72;2.28;;;22.90;69.10;;;;;;5051928;28;20468;-50
2021/07/23 01:00:26;;;;;;;2.30;2.10;;;22.90;69.00;;;;;;5051893;28;20045;-54
2021/07/23 01:02:52;;;;;;;2.20;1.98;;;22.90;69.10;;;;;;5050679;28;20041;-53
2021/07/23 01:05:18;;;;;;;2.20;2.00;;;22.90;69.00;;;;;;5051391;28;20052;-52
2021/07/23 01:07:46;;;;;;;2.45;2.22;;;22.90;69.10;;;;;;5052146;28;20044;-47
2021/07/23 01:10:11;;;;;;;2.33;2.03;;;22.90;69.10;;;;;;5051727;28;20040;-46
2021/07/23 01:12:38;;;;;;;2.47;2.03;;;22.90;69.10;;;;;;5051591;28;20409;-45
2021/07/23 01:15:04;;;;;;;2.28;2.05;;;22.90;69.10;;;;;;5051644;28;20041;-45
2021/07/23 01:17:31;;;;;;;2.40;2.10;;;22.90;69.10;;;;;;5052490;28;20045;-47
2021/07/23 01:20:15;;;;;;;2.33;2.10;;;22.90;69.10;;;;;;5052176;28;20183;-46
2021/07/23 01:22:41;;;;;;;2.25;2.05;;;22.90;69.10;;;;;;5051933;28;20055;-45
2021/07/23 01:25:08;;;;;;;2.30;2.08;;;22.80;69.00;;;;;;5051459;28;20041;-42
2021/07/23 01:27:43;;;;;;;3.72;2.10;;;22.90;69.10;;;;;;5051191;28;20876;-43
2021/07/23 01:30:10;;;;;;;2.10;1.90;;;22.90;69.10;;;;;;5039914;28;20047;-44
2021/07/23 01:32:36;;;;;;;3.00;2.10;;;22.80;69.10;;;;;;5051301;28;20099;-45
2021/07/23 01:35:04;;;;;;;2.47;1.90;;;22.90;69.10;;;;;;5051541;28;20049;-42
2021/07/23 01:37:31;;;;;;;2.85;1.98;;;22.90;69.10;;;;;;5051292;28;20596;-44
2021/07/23 01:39:58;;;;;;;2.35;2.15;;;22.90;69.20;;;;;;5051716;28;20061;-42
2021/07/23 01:42:26;;;;;;;2.30;2.10;;;22.90;69.10;;;;;;5055165;28;20106;-47
2021/07/23 01:44:52;;;;;;;2.25;2.05;;;22.90;69.20;;;;;;5053277;28;20128;-47
2021/07/23 01:47:18;;;;;;;2.00;1.80;;;22.90;69.20;;;;;;5055864;28;20140;-48
2021/07/23 01:49:44;;;;;;;2.45;2.10;;;22.80;69.10;;;;;;5056111;28;20537;-49
2021/07/23 01:52:09;;;;;;;2.25;2.05;;;22.80;69.10;;;;;;5055430;28;20091;-46
2021/07/23 01:54:35;;;;;;;2.22;2.00;;;22.80;69.10;;;;;;5054661;28;20037;-43
2021/07/23 01:57:04;;;;;;;1.98;1.70;;;22.80;69.10;;;;;;5055647;28;20053;-47
2021/07/23 01:59:30;;;;;;;2.20;1.83;;;22.90;69.20;;;;;;5055113;28;20114;-50
2021/07/23 02:01:56;;;;;;;1.83;1.58;;;22.80;69.20;;;;;;5055384;28;20485;-44
2021/07/23 02:04:25;;;;;;;2.92;1.85;;;22.80;69.20;;;;;;5054590;28;20049;-50
2021/07/23 02:06:51;;;;;;;2.22;2.00;;;22.80;69.20;;;;;;5055281;28;20045;-47
2021/07/23 02:09:17;;;;;;;2.38;1.88;;;22.80;69.20;;;;;;5055216;28;20044;-47
2021/07/23 02:11:43;;;;;;;2.10;1.90;;;22.80;69.20;;;;;;5055633;28;20064;-47
2021/07/23 02:14:09;;;;;;;2.13;1.90;;;22.80;69.20;;;;;;5054598;28;20049;-46
2021/07/23 02:16:35;;;;;;;1.85;1.75;;;22.80;69.20;;;;;;5055003;28;20051;-50
2021/07/23 02:19:01;;;;;;;1.90;1.73;;;22.80;69.20;;;;;;5055073;28;20045;-42
2021/07/23 02:21:27;;;;;;;2.30;1.88;;;22.80;69.20;;;;;;5054980;28;20440;-57
2021/07/23 02:23:52;;;;;;;1.88;1.58;;;22.80;69.30;;;;;;5054803;28;20047;-53
2021/07/23 02:26:19;;;;;;;2.83;1.85;;;22.80;69.30;;;;;;5054987;28;20481;-56
2021/07/23 02:28:46;;;;;;;1.98;1.77;;;22.80;69.30;;;;;;5054373;28;20068;-55
2021/07/23 02:31:12;;;;;;;2.35;2.05;;;22.80;69.30;;;;;;5054771;28;20049;-52
2021/07/23 02:33:39;;;;;;;2.17;1.90;;;22.80;69.30;;;;;;5054798;28;20489;-54
2021/07/23 02:36:05;;;;;;;2.00;1.80;;;22.80;69.30;;;;;;5044936;28;20120;-55
2021/07/23 02:38:31;;;;;;;2.60;2.00;;;22.80;69.30;;;;;;5055076;28;20055;-54
2021/07/23 02:40:56;;;;;;;2.20;1.90;;;22.80;69.40;;;;;;5054473;28;20123;-55
2021/07/23 02:43:23;;;;;;;1.67;1.50;;;22.80;69.30;;;;;;5054627;28;20539;-56
2021/07/23 02:45:49;;;;;;;2.40;2.05;;;22.80;69.30;;;;;;5054012;28;20048;-56
2021/07/23 02:48:14;;;;;;;2.13;1.80;;;22.80;69.40;;;;;;5053374;28;20049;-57
2021/07/23 02:50:40;;;;;;;2.30;1.92;;;22.80;69.40;;;;;;5054704;28;20056;-50
2021/07/23 02:53:06;;;;;;;2.00;1.80;;;22.80;69.40;;;;;;5052790;28;20088;-56
2021/07/23 02:55:32;;;;;;;2.30;1.50;;;22.80;69.40;;;;;;5053201;28;20493;-56
2021/07/23 02:57:58;;;;;;;3.63;1.85;;;22.80;69.40;;;;;;5052960;28;20112;-56
2021/07/23 03:00:24;;;;;;;2.13;1.88;;;22.80;69.40;;;;;;5044779;28;20163;-56
2021/07/23 03:02:49;;;;;;;2.17;1.90;;;22.80;69.40;;;;;;5053003;28;20068;-54
2021/07/23 03:05:15;;;;;;;2.00;1.73;;;22.80;69.30;;;;;;5052754;28;20119;-57
2021/07/23 03:07:41;;;;;;;2.05;1.80;;;22.80;69.40;;;;;;5052320;28;20047;-54
2021/07/23 03:10:07;;;;;;;2.10;1.80;;;22.80;69.40;;;;;;5053598;28;20106;-55
2021/07/23 03:12:33;;;;;;;2.00;1.80;;;22.80;69.40;;;;;;5052684;28;20078;-55
2021/07/23 03:14:59;;;;;;;2.30;2.03;;;22.80;69.40;;;;;;5052979;28;20044;-50
2021/07/23 03:17:25;;;;;;;1.90;1.70;;;22.80;69.40;;;;;;5052433;28;20048;-56
2021/07/23 03:19:51;;;;;;;2.58;2.38;;;22.70;69.40;;;;;;5052798;28;20135;-56
2021/07/23 03:22:17;;;;;;;1.88;1.67;;;22.80;69.50;;;;;;5053079;28;20053;-57
2021/07/23 03:24:43;;;;;;;2.10;1.90;;;22.80;69.50;;;;;;5052562;28;20061;-50
2021/07/23 03:27:09;;;;;;;2.47;1.90;;;22.80;69.50;;;;;;5052549;28;20124;-51
2021/07/23 03:29:34;;;;;;;2.20;2.00;;;22.80;69.50;;;;;;5052936;28;20048;-57
2021/07/23 03:32:01;;;;;;;1.77;1.67;;;22.80;69.50;;;;;;5052223;28;20052;-48
2021/07/23 03:34:26;;;;;;;2.72;2.35;;;22.80;69.50;;;;;;5052010;28;20040;-56
2021/07/23 03:36:52;;;;;;;2.28;1.90;;;22.80;69.50;;;;;;5051968;28;20045;-53
2021/07/23 03:39:18;;;;;;;2.42;2.10;;;22.80;69.50;;;;;;5052073;28;20041;-57
2021/07/23 03:41:43;;;;;;;2.22;2.00;;;22.80;69.50;;;;;;5052001;28;20071;-54
2021/07/23 03:44:09;;;;;;;1.73;1.60;;;22.80;69.50;;;;;;5051413;28;20095;-54
2021/07/23 03:46:35;;;;;;;2.30;1.83;;;22.80;69.50;;;;;;5050998;28;20079;-46
2021/07/23 03:49:01;;;;;;;2.53;2.10;;;22.80;69.50;;;;;;5051495;28;20049;-46
2021/07/23 03:51:27;;;;;;;1.88;1.70;;;22.80;69.50;;;;;;5051493;28;20072;-46
2021/07/23 03:53:53;;;;;;;2.08;1.90;;;22.80;69.50;;;;;;5016138;28;1054075;-47
2021/07/23 03:56:18;;;;;;;1.90;1.80;;;22.80;69.50;;;;;;5053039;28;20098;-48
2021/07/23 03:58:44;;;;;;;2.50;2.08;;;22.80;69.60;;;;;;5052583;28;20049;-47
2021/07/23 04:01:10;;;;;;;2.00;1.80;;;22.80;69.80;;;;;;5053067;28;20048;-45
2021/07/23 04:03:36;;;;;;;1.85;1.67;;;22.80;69.60;;;;;;5051884;28;20294;-55
2021/07/23 04:06:02;;;;;;;1.83;1.70;;;22.80;69.60;;;;;;5053218;28;20536;-52
2021/07/23 04:08:28;;;;;;;2.90;1.90;;;22.80;69.60;;;;;;5052799;28;20067;-54
2021/07/23 04:10:55;;;;;;;1.95;1.75;;;22.80;69.60;;;;;;5053080;28;20536;-53
2021/07/23 04:13:21;;;;;;;2.05;1.88;;;22.80;69.60;;;;;;5053047;28;20068;-54
2021/07/23 04:15:47;;;;;;;2.00;1.80;;;22.80;69.60;;;;;;5052829;28;20077;-49
2021/07/23 04:18:13;;;;;;;2.00;1.85;;;22.70;69.60;;;;;;5051284;28;20486;-52
2021/07/23 04:20:38;;;;;;;1.90;1.80;;;22.80;69.60;;;;;;5053057;28;20079;-53
2021/07/23 04:23:04;;;;;;;2.83;1.90;;;22.80;69.60;;;;;;5052766;28;20037;-49
2021/07/23 04:25:30;;;;;;;2.10;1.88;;;22.70;69.60;;;;;;5052844;28;20045;-55
2021/07/23 04:27:56;;;;;;;2.67;2.05;;;22.70;69.60;;;;;;5052292;28;20044;-49
2021/07/23 04:30:21;;;;;;;2.95;1.80;;;22.70;69.60;;;;;;5052162;28;20466;-46
2021/07/23 04:32:48;;;;;;;2.33;2.10;;;22.70;69.60;;;;;;5052573;28;20516;-54
2021/07/23 04:35:15;;;;;;;2.25;2.05;;;22.70;69.60;;;;;;5052418;28;20118;-47
2021/07/23 04:37:41;;;;;;;2.30;1.80;;;22.80;69.60;;;;;;5052162;28;20501;-49
2021/07/23 04:40:07;;;;;;;2.33;1.92;;;22.70;69.60;;;;;;5052271;28;20394;-57
2021/07/23 04:42:36;;;;;;;2.53;2.22;;;22.70;69.60;;;;;;5052514;28;20076;-53
2021/07/23 04:45:05;;;;;;;2.10;1.90;;;22.70;69.70;;;;;;5052586;28;20111;-55
2021/07/23 04:47:31;;;;;;;2.35;2.15;;;22.70;69.60;;;;;;5052234;28;20048;-53
2021/07/23 04:50:01;;;;;;;2.47;2.25;;;22.70;69.60;;;;;;5051713;28;20072;-52
2021/07/23 04:52:27;;;;;;;2.00;1.80;;;22.70;69.60;;;;;;5052363;28;20063;-54
2021/07/23 04:54:53;;;;;;;2.75;2.20;;;22.70;69.60;;;;;;5052121;28;20055;-53
2021/07/23 04:57:26;;;;;;;2.42;2.10;;;22.70;69.60;;;;;;5052093;28;20076;-54
2021/07/23 04:59:52;;;;;;;2.28;1.85;;;22.70;69.60;;;;;;5038887;28;20041;-51
2021/07/23 05:02:17;;;;;;;2.33;2.10;;;22.70;69.60;;;;;;5052226;28;20056;-55
2021/07/23 05:04:43;;;;;;;2.95;1.67;;;22.70;69.70;;;;;;5051554;28;20045;-53
2021/07/23 05:07:09;;;;;;;2.20;1.80;;;22.70;69.60;;;;;;5052405;28;20041;-52
2021/07/23 05:09:35;;;;;;;2.35;1.95;;;22.70;69.70;;;;;;5051376;28;20140;-48
2021/07/23 05:12:02;;;;;;;2.15;1.92;;;22.70;69.70;;;;;;5052105;28;20063;-50
2021/07/23 05:14:28;;;;;;;2.30;2.00;;;22.70;69.70;;;;;;5051772;28;20045;-57
2021/07/23 05:16:55;;;;;;;2.30;1.90;;;22.70;69.70;;;;;;5052453;28;20049;-44
2021/07/23 05:19:27;;;;;;;2.35;2.15;;;22.70;69.70;;;;;;5051292;28;20409;-48
2021/07/23 05:21:53;;;;;;;2.10;1.90;;;22.70;69.70;;;;;;5051788;28;20053;-51
2021/07/23 05:24:19;;;;;;;2.10;1.90;;;22.70;69.70;;;;;;5051814;28;20048;-49
2021/07/23 05:26:45;;;;;;;2.00;1.80;;;22.70;69.70;;;;;;5051682;28;20866;-54
2021/07/23 05:29:11;;;;;;;1.95;1.83;;;22.70;69.80;;;;;;5043657;28;20052;-53
2021/07/23 05:31:39;;;;;;;2.30;2.00;;;22.70;69.70;;;;;;5051880;28;20053;-53
2021/07/23 05:34:06;;;;;;;2.08;1.83;;;22.70;69.70;;;;;;5052179;28;20048;-47
2021/07/23 05:36:31;;;;;;;2.13;1.92;;;22.70;69.80;;;;;;5051830;28;20045;-52
2021/07/23 05:38:57;;;;;;;2.58;2.35;;;22.70;69.70;;;;;;5051847;28;20041;-53
2021/07/23 05:41:23;;;;;;;2.17;1.98;;;22.70;69.80;;;;;;5051765;28;20048;-54
2021/07/23 05:43:49;;;;;;;1.92;1.73;;;22.70;69.70;;;;;;5052139;28;20049;-47
2021/07/23 05:46:15;;;;;;;2.42;2.00;;;22.60;69.70;;;;;;5051874;28;20413;-46
2021/07/23 05:48:41;;;;;;;2.45;2.25;;;22.70;69.80;;;;;;5051603;28;20204;-46
2021/07/23 05:51:08;;;;;;;2.88;2.30;;;22.70;69.70;;;;;;5051830;28;20073;-56
2021/07/23 05:53:35;;;;;;;2.20;2.00;;;22.70;69.80;;;;;;5051024;28;20098;-51
2021/07/23 05:56:02;;;;;;;2.30;2.00;;;22.70;69.80;;;;;;5052210;28;20493;-52
2021/07/23 05:58:29;;;;;;;2.20;2.00;;;22.70;69.80;;;;;;5052251;28;20045;-54
2021/07/23 06:00:55;;;;;;;2.67;2.33;;;22.70;69.80;;;;;;5052304;28;20059;-53
2021/07/23 06:03:21;;;;;;;2.20;2.00;;;22.70;69.80;;;;;;5051989;28;20045;-55
2021/07/23 06:05:47;;;;;;;2.70;2.10;;;22.70;69.80;;;;;;5051648;28;20041;-52
2021/07/23 06:08:13;;;;;;;2.90;2.42;;;22.70;69.80;;;;;;5051114;28;20123;-52
2021/07/23 06:10:39;;;;;;;2.42;1.90;;;22.70;69.80;;;;;;5044281;28;20512;-54
2021/07/23 06:13:05;;;;;;;2.33;2.10;;;22.70;69.80;;;;;;5051603;28;20116;-47
2021/07/23 06:15:31;;;;;;;2.30;2.10;;;22.60;69.80;;;;;;5051705;28;20137;-54
2021/07/23 06:17:58;;;;;;;2.72;2.30;;;22.70;69.90;;;;;;5031713;28;20053;-51
2021/07/23 06:20:23;;;;;;;2.58;2.38;;;22.60;69.80;;;;;;5045860;28;20136;-55
2021/07/23 06:22:54;;;;;;;2.58;2.20;;;22.70;69.80;;;;;;5051468;28;20095;-45
2021/07/23 06:25:20;;;;;;;2.97;2.38;;;22.70;69.90;;;;;;5051704;28;20068;-45
2021/07/23 06:27:47;;;;;;;2.78;2.28;;;22.70;69.90;;;;;;5054018;28;20538;-45
2021/07/23 06:30:13;;;;;;;10.38;8.60;;;22.70;69.90;;;;;;5054915;28;20497;-41
2021/07/23 06:32:39;;;;;;;8.25;6.13;;;22.70;69.20;;;;;;5055624;28;20095;-47
2021/07/23 06:35:05;;;;;;;8.15;6.22;;;22.50;68.80;;;;;;5055119;28;20049;-46
2021/07/23 06:37:31;;;;;;;13.68;6.53;;;22.50;68.90;;;;;;5054952;28;20052;-44
2021/07/23 06:39:57;;;;;;;7.32;6.32;;;22.50;69.00;;;;;;5054067;28;20087;-53
2021/07/23 06:42:24;;;;;;;8.30;6.32;;;22.50;69.10;;;;;;5054938;28;20056;-53
2021/07/23 06:44:50;;;;;;;8.13;5.80;;;22.50;69.10;;;;;;5054849;28;20129;-57
2021/07/23 06:47:16;;;;;;;7.05;6.13;;;22.50;69.20;;;;;;5054888;28;20087;-54
2021/07/23 06:49:42;;;;;;;6.57;5.90;;;22.50;69.30;;;;;;5054406;28;20040;-53
2021/07/23 06:52:08;;;;;;;7.03;6.07;;;22.50;69.40;;;;;;5054922;28;20049;-53
2021/07/23 06:54:35;;;;;;;7.88;6.10;;;22.50;69.40;;;;;;5054038;28;20114;-58
2021/07/23 06:57:04;;;;;;;7.53;6.03;;;22.50;69.40;;;;;;5050073;28;20037;-49
2021/07/23 06:59:31;;;;;;;7.15;6.18;;;22.50;69.50;;;;;;5054336;28;20590;-56
2021/07/23 07:01:59;;;;;;;6.53;5.43;;;22.50;69.50;;;;;;5034916;28;20045;-58
2021/07/23 07:04:25;;;;;;;7.47;6.35;;;22.50;69.60;;;;;;5036204;28;20077;-57
2021/07/23 07:06:54;;;;;;;6.78;5.68;;;22.50;69.60;;;;;;5054870;28;20045;-54
2021/07/23 07:09:21;;;;;;;6.50;5.70;;;22.50;69.60;;;;;;5054629;28;20053;-58
2021/07/23 07:11:46;;;;;;;6.93;6.18;;;22.50;69.60;;;;;;5053268;28;20053;-58
2021/07/23 07:14:12;;;;;;;7.05;5.80;;;22.50;69.60;;;;;;5054770;28;20056;-57
2021/07/23 07:16:38;;;;;;;6.22;5.63;;;22.50;69.60;;;;;;5054272;28;20072;-53
2021/07/23 07:19:03;;;;;;;6.97;5.30;;;22.50;69.70;;;;;;5054188;28;20048;-57
2021/07/23 07:21:29;;;;;;;6.53;5.82;;;22.50;70.30;;;;;;5053959;28;20041;-58
2021/07/23 07:23:55;;;;;;;10.93;7.55;;;22.50;69.70;;;;;;5053841;28;20052;-55
2021/07/23 07:26:21;;;;;;;9.15;7.10;;;22.50;69.10;;;;;;5053990;28;20132;-59
2021/07/23 07:28:46;;;;;;;7.43;6.30;;;22.40;68.90;;;;;;5054305;28;20102;-58
2021/07/23 07:31:16;;;;;;;8.80;6.18;;;22.40;68.90;;;;;;5055573;28;20386;-57
2021/07/23 07:33:42;;;;;;;9.18;6.35;;;22.40;69.00;;;;;;5053732;28;20053;-56
2021/07/23 07:36:08;;;;;;;11.23;7.25;;;22.40;68.80;;;;;;5053382;28;20413;-59
2021/07/23 07:38:36;;;;;;;7.47;5.78;;;22.40;68.80;;;;;;5052104;28;20045;-58
2021/07/23 07:41:02;;;;;;;7.18;6.00;;;22.40;68.80;;;;;;5052738;28;20056;-55
2021/07/23 07:43:28;;;;;;;8.10;6.43;;;22.40;68.80;;;;;;5053304;28;20056;-56
2021/07/23 07:45:55;;;;;;;7.57;6.20;;;22.40;68.90;;;;;;5052976;28;20059;-55
2021/07/23 07:48:21;;;;;;;7.28;5.53;;;22.40;68.90;;;;;;5052973;28;20053;-54
2021/07/23 07:50:47;;;;;;;7.57;5.93;;;22.40;69.00;;;;;;5053001;28;20132;-57
2021/07/23 07:53:13;;;;;;;6.78;5.40;;;22.40;69.10;;;;;;5052783;28;20060;-55
2021/07/23 07:55:39;;;;;;;7.57;6.10;;;22.40;69.10;;;;;;5053117;28;20041;-48
2021/07/23 07:58:04;;;;;;;7.35;5.95;;;22.40;69.10;;;;;;5052532;28;20056;-59
2021/07/23 08:00:30;;;;;;;7.07;5.28;;;22.40;69.20;;;;;;5052330;28;20041;-57
2021/07/23 08:02:56;;;;;;;7.78;5.95;;;22.40;69.20;;;;;;5052917;28;20090;-59
2021/07/23 08:05:22;;;;;;;6.88;5.45;;;22.40;69.20;;;;;;5052821;28;20124;-55
2021/07/23 08:07:48;;;;;;;7.50;5.80;;;22.40;69.30;;;;;;5052936;28;20135;-58
2021/07/23 08:10:15;;;;;;;8.23;6.20;;;22.40;69.30;;;;;;5051838;28;20063;-56
2021/07/23 08:12:41;;;;;;;6.15;5.10;;;22.40;69.30;;;;;;5052022;28;20052;-55
2021/07/23 08:15:07;;;;;;;6.45;5.63;;;22.40;69.40;;;;;;5052547;28;20045;-57
2021/07/23 08:17:33;;;;;;;6.65;5.53;;;22.40;69.40;;;;;;5052754;28;20076;-57
2021/07/23 08:20:02;;;;;;;6.00;5.35;;;22.40;69.40;;;;;;5052639;28;20211;-58
2021/07/23 08:22:31;;;;;;;6.57;4.72;;;22.40;69.40;;;;;;5052584;28;20048;-47
2021/07/23 08:24:56;;;;;;;6.63;3.65;;;22.40;69.00;;;;;;5052811;28;20064;-52
2021/07/23 08:27:22;;;;;;;5.28;3.72;;;22.30;67.30;;;;;;5051047;28;20045;-46
2021/07/23 08:29:48;;;;;;;24.77;6.57;;;22.10;66.40;;;;;;5053742;28;20045;-41
2021/07/23 08:32:14;;;;;;;27.52;5.88;;;21.90;66.20;;;;;;5052587;28;20051;-39
2021/07/23 08:34:40;;;;;;;25.77;5.82;;;21.80;66.40;;;;;;5052204;28;20048;-42
2021/07/23 08:37:07;;;;;;;22.10;5.80;;;21.80;67.10;;;;;;5052387;28;20421;-40
2021/07/23 08:39:34;;;;;;;17.23;5.60;;;21.80;66.60;;;;;;5052137;28;20497;-43
2021/07/23 08:42:23;;;;;;;15.07;5.68;;;21.90;66.70;;;;;;5051532;28;20056;-40
2021/07/23 08:44:49;;;;;;;18.02;5.88;;;21.90;66.80;;;;;;5051427;28;20045;-40
2021/07/23 08:47:15;;;;;;;12.18;5.38;;;21.90;66.90;;;;;;5051305;28;20056;-40
2021/07/23 08:49:41;;;;;;;13.13;5.45;;;22.00;67.00;;;;;;5051768;28;20550;-41
2021/07/23 08:52:06;;;;;;;14.63;5.13;;;22.00;67.20;;;;;;5051373;28;20037;-40
2021/07/23 08:54:33;;;;;;;15.82;5.82;;;22.00;67.30;;;;;;5051925;28;20045;-40
2021/07/23 08:56:59;;;;;;;16.35;5.35;;;22.10;67.40;;;;;;5051456;28;20516;-41
2021/07/23 08:59:24;;;;;;;14.90;4.97;;;22.10;67.40;;;;;;5051718;28;20045;-40
2021/07/23 09:02:05;;;;;;;13.65;5.30;;;22.10;67.40;;;;;;5051217;28;20144;-40
2021/07/23 09:04:32;;;;;;;14.68;5.53;;;22.10;67.40;;;;;;5050249;28;20076;-41
2021/07/23 09:07:20;;;;;;;9.93;4.68;;;22.10;67.50;;;;;;5051587;28;20428;-44
2021/07/23 09:10:04;;;;;;;13.98;5.43;;;22.20;67.50;;;;;;5052103;28;20481;-41
2021/07/23 09:12:44;;;;;;;12.32;4.65;;;22.20;67.50;;;;;;5051936;28;20049;-41
2021/07/23 09:15:21;;;;;;;13.77;5.72;;;22.20;67.50;;;;;;5051747;28;20056;-42
2021/07/23 09:17:47;;;;;;;13.80;4.47;;;22.20;67.50;;;;;;5052359;28;20079;-39
2021/07/23 09:20:13;;;;;;;9.02;5.25;;;22.20;67.50;;;;;;5052521;28;20056;-41
2021/07/23 09:22:47;;;;;;;13.95;4.75;;;22.30;67.50;;;;;;5052049;28;20052;-40
2021/07/23 09:25:14;;;;;;;10.07;4.70;;;22.20;67.30;;;;;;5051942;28;20049;-42
2021/07/23 09:27:40;;;;;;;7.60;4.28;;;22.30;67.10;;;;;;5052123;28;20073;-40
2021/07/23 09:30:07;;;;;;;9.38;4.55;;;22.20;67.00;;;;;;5051540;28;20485;-43
2021/07/23 09:32:33;;;;;;;6.60;4.82;;;22.20;66.20;;;;;;5051886;28;20052;-42
2021/07/23 09:35:13;;;;;;;23.23;5.78;;;22.00;65.90;;;;;;5052052;28;20064;-45
2021/07/23 09:37:57;;;;;;;9.48;4.60;;;21.90;65.80;;;;;;5052007;28;20045;-42
2021/07/23 09:40:23;;;;;;;8.13;4.93;;;21.90;66.10;;;;;;5051804;28;20131;-41
2021/07/23 09:42:59;;;;;;;8.32;4.80;;;21.90;66.40;;;;;;5051151;28;20064;-42
2021/07/23 09:45:31;;;;;;;8.27;5.03;;;21.90;66.40;;;;;;5052071;28;20140;-43
2021/07/23 09:48:11;;;;;;;6.05;4.55;;;21.90;66.40;;;;;;5051729;28;20083;-42
2021/07/23 09:50:39;;;;;;;13.95;5.00;;;21.90;66.40;;;;;;5051951;28;20052;-42
2021/07/23 09:53:09;;;;;;;8.60;5.15;;;22.00;67.10;;;;;;5051078;28;20083;-42
2021/07/23 09:55:35;;;;;;;6.43;4.35;;;22.00;66.50;;;;;;5051984;28;20057;-42
2021/07/23 09:58:05;;;;;;;7.10;4.10;;;22.00;66.50;;;;;;5051957;28;20056;-43
2021/07/23 10:00:36;;;;;;;11.57;4.63;;;22.00;66.50;;;;;;5051800;28;20076;-43
2021/07/23 10:03:04;;;;;;;8.75;4.55;;;22.10;66.20;;;;;;5054220;28;20484;-42
2021/07/23 10:05:34;;;;;;;9.90;4.53;;;22.00;66.20;;;;;;5055570;28;20485;-43
2021/07/23 10:08:06;;;;;;;5.95;4.15;;;22.10;66.20;;;;;;5055506;28;20051;-41
2021/07/23 10:10:32;;;;;;;7.38;4.82;;;22.10;66.30;;;;;;5055338;28;20049;-41
2021/07/23 10:13:01;;;;;;;6.32;4.28;;;22.10;66.40;;;;;;5055471;28;20057;-41
2021/07/23 10:15:29;;;;;;;7.90;4.57;;;22.10;66.60;;;;;;5055470;28;20485;-41
2021/07/23 10:17:55;;;;;;;6.43;4.20;;;22.10;66.50;;;;;;5054958;28;20051;-41
2021/07/23 10:20:21;;;;;;;5.45;3.85;;;22.10;66.50;;;;;;5055250;28;20128;-40
2021/07/23 10:22:54;;;;;;;6.60;4.22;;;22.20;66.70;;;;;;5055285;28;20500;-41
2021/07/23 10:25:27;;;;;;;7.60;4.25;;;22.20;66.80;;;;;;5035588;28;20060;-41
2021/07/23 10:27:53;;;;;;;6.72;4.22;;;22.30;66.90;;;;;;5035402;28;20045;-42
2021/07/23 10:30:39;;;;;;;6.38;4.15;;;22.30;67.00;;;;;;5035235;28;20075;-41
2021/07/23 10:33:05;;;;;;;7.05;4.05;;;22.30;67.00;;;;;;5036390;28;20080;-41
2021/07/23 10:35:32;;;;;;;5.80;4.00;;;22.30;67.10;;;;;;5054952;28;20048;-42
2021/07/23 10:38:00;;;;;;;6.20;4.53;;;22.30;67.10;;;;;;5055160;28;20942;-42
2021/07/23 10:40:37;;;;;;;5.70;4.07;;;22.30;67.20;;;;;;5054972;28;20091;-41
2021/07/23 10:43:31;;;;;;;7.47;4.20;;;22.30;67.30;;;;;;5054586;28;20052;-41
2021/07/23 10:45:57;;;;;;;5.43;3.63;;;22.30;67.30;;;;;;5035095;28;20486;-41
2021/07/23 10:48:48;;;;;;;5.18;3.80;;;22.30;67.40;;;;;;5034514;28;20052;-42
2021/07/23 10:51:46;;;;;;;5.88;3.67;;;22.40;67.50;;;;;;5034822;28;20069;-41
2021/07/23 10:54:13;;;;;;;5.00;3.53;;;22.40;67.50;;;;;;5042951;28;20486;-43
2021/07/23 10:57:11;;;;;;;4.43;3.53;;;22.40;67.60;;;;;;5054844;28;20098;-42
2021/07/23 10:59:40;;;;;;;4.18;3.42;;;22.40;67.60;;;;;;5054604;28;20400;-43
2021/07/23 11:02:16;;;;;;;4.57;3.47;;;22.40;67.70;;;;;;5054575;28;20045;-47
2021/07/23 11:04:42;;;;;;;5.57;3.80;;;22.40;67.70;;;;;;5053653;28;20044;-44
2021/07/23 11:07:10;;;;;;;5.15;3.80;;;22.40;67.80;;;;;;5054598;28;20049;-46
2021/07/23 11:09:37;;;;;;;3.72;3.30;;;22.40;67.80;;;;;;5054551;28;20070;-46
2021/07/23 11:12:20;;;;;;;5.10;3.67;;;22.50;67.90;;;;;;5054277;28;20101;-44
2021/07/23 11:14:52;;;;;;;5.70;3.47;;;22.50;67.90;;;;;;5054060;28;20076;-43
2021/07/23 11:17:18;;;;;;;4.30;3.50;;;22.50;67.90;;;;;;5054371;28;20063;-44
2021/07/23 11:19:52;;;;;;;4.47;3.45;;;22.50;68.00;;;;;;5053963;28;20080;-46
2021/07/23 11:22:23;;;;;;;4.40;3.60;;;22.50;68.00;;;;;;5054416;28;20098;-45
2021/07/23 11:24:49;;;;;;;4.75;3.33;;;22.50;68.00;;;;;;5053384;28;20037;-43
2021/07/23 11:27:24;;;;;;;5.50;3.42;;;22.50;68.00;;;;;;5054086;28;20087;-42
2021/07/23 11:29:50;;;;;;;3.85;3.40;;;22.50;68.10;;;;;;5054266;28;20061;-47
2021/07/23 11:32:18;;;;;;;3.90;3.28;;;22.50;68.10;;;;;;5054117;28;20128;-44
2021/07/23 11:34:44;;;;;;;4.95;3.53;;;22.50;68.10;;;;;;5052737;28;20371;-42
2021/07/23 11:37:14;;;;;;;4.65;3.10;;;22.50;68.10;;;;;;5053761;28;20041;-45
2021/07/23 11:39:58;;;;;;;4.55;3.72;;;22.50;68.10;;;;;;5053962;28;20448;-46
2021/07/23 11:42:26;;;;;;;3.67;3.20;;;22.50;68.10;;;;;;5053709;28;20518;-45
2021/07/23 11:44:58;;;;;;;5.03;3.38;;;22.50;68.20;;;;;;5053266;28;20051;-44
2021/07/23 11:47:32;;;;;;;3.83;3.08;;;22.50;68.10;;;;;;5054170;28;20057;-42
2021/07/23 11:49:59;;;;;;;3.50;3.20;;;22.50;68.10;;;;;;5054144;28;20060;-45
2021/07/23 11:52:26;;;;;;;3.45;2.97;;;22.50;68.20;;;;;;5052976;28;20057;-41
2021/07/23 11:55:18;;;;;;;3.55;3.10;;;22.50;68.20;;;;;;5053025;28;20049;-45
2021/07/23 11:57:48;;;;;;;3.53;2.95;;;22.60;68.30;;;;;;5051643;28;20057;-41
2021/07/23 12:00:19;;;;;;;3.88;3.22;;;22.50;68.20;;;;;;5053664;28;20053;-41
2021/07/23 12:02:45;;;;;;;3.90;3.35;;;22.50;68.20;;;;;;5053449;28;20548;-44
2021/07/23 12:05:13;;;;;;;4.78;3.10;;;22.60;68.30;;;;;;5053062;28;20128;-46
2021/07/23 12:07:40;;;;;;;4.18;3.40;;;22.60;68.30;;;;;;5052854;28;20069;-46
2021/07/23 12:10:08;;;;;;;3.83;3.42;;;22.50;68.90;;;;;;5053676;28;20041;-45
2021/07/23 12:12:36;;;;;;;3.28;2.88;;;22.60;68.30;;;;;;5053718;28;20095;-40
2021/07/23 12:15:12;;;;;;;3.30;2.78;;;22.60;68.30;;;;;;5053215;28;20053;-42
2021/07/23 12:17:43;;;;;;;3.15;2.85;;;22.60;68.30;;;;;;5053173;28;20049;-39
2021/07/23 12:20:10;;;;;;;3.40;2.80;;;22.50;68.30;;;;;;5033226;28;20049;-45
2021/07/23 12:22:36;;;;;;;3.38;3.08;;;22.60;68.40;;;;;;5033269;28;20045;-38
2021/07/23 12:25:19;;;;;;;4.65;3.40;;;22.60;68.40;;;;;;5034037;28;20477;-42
2021/07/23 12:27:45;;;;;;;3.38;3.08;;;22.60;68.40;;;;;;5048918;28;20546;-47
2021/07/23 12:30:12;;;;;;;3.90;3.20;;;22.60;68.40;;;;;;5053129;28;20404;-45
2021/07/23 12:32:38;;;;;;;3.97;3.58;;;22.60;68.40;;;;;;5052808;28;20059;-45
2021/07/23 12:35:04;;;;;;;3.60;3.15;;;22.60;68.40;;;;;;5052126;28;20048;-41
2021/07/23 12:37:30;;;;;;;3.45;2.97;;;22.60;68.50;;;;;;5051457;28;20140;-47
2021/07/23 12:40:00;;;;;;;3.67;3.15;;;22.60;68.50;;;;;;5052603;28;20052;-46
2021/07/23 12:42:27;;;;;;;3.53;2.92;;;22.60;68.50;;;;;;5051973;28;20131;-44
2021/07/23 12:44:53;;;;;;;3.38;3.08;;;22.60;68.50;;;;;;5051502;28;20045;-47
2021/07/23 12:47:21;;;;;;;5.13;3.28;;;22.60;68.50;;;;;;5052295;28;20055;-39
2021/07/23 12:49:51;;;;;;;3.10;2.80;;;22.60;68.50;;;;;;5052097;28;20045;-41